createdAt,value
2023-05-25T00:01:01.238Z,3.55
2023-05-25T00:06:05.713Z,3.72
2023-05-25T00:11:07.621Z,3.60
2023-05-25T00:16:09.466Z,3.60
2023-05-25T00:21:11.910Z,3.60
2023-05-25T00:26:13.754Z,4.05
2023-05-25T00:31:15.692Z,4.22
2023-05-25T00:36:17.738Z,4.15
2023-05-25T00:41:19.649Z,4.50
2023-05-25T00:46:22.555Z,4.10
2023-05-25T00:51:26.505Z,4.07
2023-05-25T00:56:35.565Z,4.78
2023-05-25T01:01:40.431Z,3.92
2023-05-25T01:06:45.959Z,4.10
2023-05-25T01:11:51.438Z,4.53
2023-05-25T01:16:55.050Z,4.43
2023-05-25T01:22:40.483Z,4.57
2023-05-25T01:27:51.774Z,4.95
2023-05-25T01:32:54.861Z,4.70
2023-05-25T01:37:59.082Z,4.85
2023-05-25T01:43:00.945Z,5.72
2023-05-25T01:48:37.089Z,5.07
2023-05-25T01:53:58.267Z,4.32
2023-05-25T01:59:03.078Z,4.65
2023-05-25T02:04:05.565Z,4.18
2023-05-25T02:09:07.416Z,3.90
2023-05-25T02:14:12.321Z,4.60
2023-05-25T02:19:17.036Z,3.92
2023-05-25T02:24:20.299Z,5.28
2023-05-25T02:29:22.141Z,4.40
2023-05-25T02:34:24.678Z,4.15
2023-05-25T02:39:27.841Z,4.90
2023-05-25T02:44:29.682Z,4.95
2023-05-25T02:49:31.465Z,5.38
2023-05-25T02:54:33.292Z,5.15
2023-05-25T02:59:35.099Z,4.63
2023-05-25T03:04:38.942Z,5.15
2023-05-25T03:09:40.872Z,4.28
2023-05-25T03:14:42.672Z,4.53
2023-05-25T03:19:44.464Z,4.10
2023-05-25T03:24:46.693Z,4.43
2023-05-25T03:29:51.888Z,4.53
2023-05-25T03:34:53.671Z,4.30
2023-05-25T03:39:55.603Z,5.07
2023-05-25T03:44:57.429Z,4.78
2023-05-25T03:49:59.256Z,4.50
2023-05-25T03:55:05.218Z,5.70
2023-05-25T04:00:08.978Z,5.15
2023-05-25T04:05:10.871Z,5.03
2023-05-25T04:10:12.720Z,5.43
2023-05-25T04:15:14.595Z,4.47
2023-05-25T04:20:16.429Z,5.10
2023-05-25T04:25:19.948Z,5.07
2023-05-25T04:30:22.111Z,4.40
2023-05-25T04:35:23.981Z,5.90
2023-05-25T04:40:28.072Z,6.20
2023-05-25T04:45:30.039Z,5.32
2023-05-25T04:50:32.108Z,5.75
2023-05-25T04:55:34.000Z,5.75
2023-05-25T05:00:36.499Z,6.15
2023-05-25T05:05:38.358Z,4.70
2023-05-25T05:10:40.184Z,5.28
2023-05-25T05:15:42.127Z,6.30
2023-05-25T05:20:44.782Z,6.40
2023-05-25T05:25:46.916Z,5.95
2023-05-25T05:30:49.135Z,6.05
2023-05-25T05:35:52.425Z,5.40
2023-05-25T05:40:54.238Z,6.35
2023-05-25T05:45:56.034Z,5.38
2023-05-25T05:50:58.092Z,5.95
2023-05-25T05:56:00.323Z,5.53
2023-05-25T06:01:03.554Z,5.47
2023-05-25T06:06:05.791Z,5.78
2023-05-25T06:11:07.720Z,5.57
2023-05-25T06:16:09.669Z,5.43
2023-05-25T06:21:12.837Z,6.05
2023-05-25T06:26:15.127Z,5.25
2023-05-25T06:31:17.198Z,5.60
2023-05-25T06:36:19.963Z,4.75
2023-05-25T06:41:22.054Z,6.28
2023-05-25T06:46:23.949Z,4.82
2023-05-25T06:51:27.517Z,5.38
2023-05-25T06:56:29.403Z,5.03
2023-05-25T07:01:31.252Z,4.82
2023-05-25T07:06:33.171Z,4.82
2023-05-25T07:11:34.984Z,4.97
2023-05-25T07:16:36.870Z,5.35
2023-05-25T07:21:38.755Z,5.18
2023-05-25T07:26:40.948Z,5.22
2023-05-25T07:31:42.939Z,5.22
2023-05-25T07:36:44.838Z,4.25
2023-05-25T07:41:46.673Z,4.65
2023-05-25T07:46:48.776Z,5.38
2023-05-25T07:51:50.895Z,5.32
2023-05-25T07:56:52.845Z,4.78
2023-05-25T08:01:54.727Z,4.22
2023-05-25T08:06:57.250Z,4.63
2023-05-25T08:12:13.445Z,4.63
2023-05-25T08:17:22.276Z,4.53
2023-05-25T08:22:24.298Z,5.10
2023-05-25T08:27:26.117Z,5.57
2023-05-25T08:32:28.052Z,4.70
2023-05-25T08:37:30.540Z,5.00
2023-05-25T08:42:32.471Z,5.97
2023-05-25T08:47:40.440Z,5.70
2023-05-25T08:52:46.959Z,5.40
2023-05-25T08:57:55.812Z,5.70
2023-05-25T09:03:18.126Z,6.38
2023-05-25T09:08:21.790Z,5.15
2023-05-25T09:13:23.822Z,5.43
2023-05-25T09:18:26.108Z,5.03
2023-05-25T09:23:28.055Z,4.20
2023-05-25T09:28:29.884Z,4.00
2023-05-25T09:33:31.717Z,4.32
2023-05-25T09:38:33.983Z,3.63
2023-05-25T09:43:44.651Z,4.13
2023-05-25T09:48:53.459Z,3.50
2023-05-25T09:53:55.996Z,2.90
2023-05-25T09:58:58.040Z,3.45
2023-05-25T10:04:05.351Z,2.83
2023-05-25T10:09:11.434Z,2.78
2023-05-25T10:14:17.494Z,3.05
2023-05-25T10:19:22.880Z,2.60
2023-05-25T10:25:03.489Z,3.17
2023-05-25T10:35:09.009Z,3.45
2023-05-25T10:40:11.375Z,2.50
2023-05-25T10:45:13.850Z,3.03
2023-05-25T10:50:38.975Z,2.58
2023-05-25T10:55:52.664Z,2.40
2023-05-25T11:01:03.969Z,1.90
2023-05-25T11:06:06.184Z,2.85
2023-05-25T11:11:07.980Z,2.55
2023-05-25T11:16:20.404Z,2.20
2023-05-25T11:21:28.996Z,2.40
2023-05-25T11:26:32.684Z,2.20
2023-05-25T11:31:41.400Z,2.42
2023-05-25T11:36:45.674Z,3.10
2023-05-25T11:41:54.673Z,2.90
2023-05-25T11:46:57.864Z,2.97
2023-05-25T11:52:03.783Z,3.38
2023-05-25T11:57:13.163Z,3.38
2023-05-25T12:02:14.948Z,3.13
2023-05-25T12:07:16.915Z,3.42
2023-05-25T12:12:19.928Z,3.20
2023-05-25T12:17:22.564Z,2.78
2023-05-25T12:22:24.546Z,3.30
2023-05-25T12:27:26.841Z,2.80
2023-05-25T12:32:28.774Z,3.13
2023-05-25T12:37:30.886Z,2.95
2023-05-25T12:42:34.386Z,2.97
2023-05-25T12:47:38.627Z,3.30
2023-05-25T12:52:44.332Z,3.25
2023-05-25T12:57:47.562Z,4.38
2023-05-25T13:02:50.636Z,3.45
2023-05-25T13:07:54.705Z,3.58
2023-05-25T13:12:58.455Z,3.63
2023-05-25T13:18:00.636Z,3.20
2023-05-25T13:23:03.375Z,3.65
2023-05-25T13:28:06.543Z,3.33
2023-05-25T13:33:08.487Z,3.30
2023-05-25T13:38:10.659Z,3.47
2023-05-25T13:43:12.465Z,3.30
2023-05-25T13:48:14.256Z,3.63
2023-05-25T13:53:16.343Z,3.72
2023-05-25T13:58:18.196Z,3.10
2023-05-25T14:03:20.121Z,2.78
2023-05-25T14:08:22.139Z,3.40
2023-05-25T14:13:23.958Z,3.35
2023-05-25T14:18:25.857Z,2.75
2023-05-25T14:23:27.665Z,2.80
2023-05-25T14:28:29.453Z,2.97
2023-05-25T14:33:31.239Z,3.55
2023-05-25T14:38:33.138Z,3.45
2023-05-25T14:43:35.041Z,3.08
2023-05-25T14:48:36.970Z,3.45
2023-05-25T14:53:38.852Z,3.60
2023-05-25T14:58:41.399Z,3.08
2023-05-25T15:03:43.313Z,3.58
2023-05-25T15:08:45.336Z,3.40
2023-05-25T15:13:47.253Z,3.00
2023-05-25T15:18:49.211Z,3.10
2023-05-25T15:23:51.331Z,3.03
2023-05-25T15:28:53.293Z,2.97
2023-05-25T15:33:58.990Z,2.95
2023-05-25T15:39:01.564Z,2.60
2023-05-25T15:44:03.502Z,3.20
2023-05-25T15:49:10.929Z,2.85
2023-05-25T15:54:14.709Z,3.10
2023-05-25T15:59:16.798Z,2.88
2023-05-25T16:04:19.264Z,3.42
2023-05-25T16:09:21.280Z,3.88
2023-05-25T16:14:23.161Z,3.00
2023-05-25T16:19:24.957Z,4.13
2023-05-25T16:24:27.264Z,3.70
2023-05-25T16:29:29.446Z,3.80
2023-05-25T16:34:31.278Z,3.30
2023-05-25T16:39:33.449Z,3.42
2023-05-25T16:44:35.347Z,3.92
2023-05-25T16:49:37.202Z,4.22
2023-05-25T16:54:39.016Z,3.22
2023-05-25T16:59:40.991Z,3.50
2023-05-25T17:04:42.911Z,4.15
2023-05-25T17:09:44.739Z,3.42
2023-05-25T17:14:46.531Z,3.90
2023-05-25T17:19:48.415Z,3.53
2023-05-25T17:24:50.267Z,3.58
2023-05-25T17:29:52.169Z,3.83
2023-05-25T17:34:54.021Z,3.13
2023-05-25T17:39:55.842Z,3.10
2023-05-25T17:44:57.980Z,3.28
2023-05-25T17:49:59.784Z,3.28
2023-05-25T17:55:01.582Z,3.28
2023-05-25T18:00:04.053Z,3.78
2023-05-25T18:05:06.367Z,3.63
2023-05-25T18:10:08.792Z,3.63
2023-05-25T18:15:10.794Z,2.83
2023-05-25T18:20:12.843Z,3.00
2023-05-25T18:25:14.981Z,3.40
2023-05-25T18:30:17.105Z,3.47
2023-05-25T18:35:18.947Z,3.53
2023-05-25T18:40:20.858Z,3.00
2023-05-25T18:45:22.705Z,3.20
2023-05-25T18:50:24.506Z,2.88
2023-05-25T18:55:26.355Z,3.55
2023-05-25T19:00:28.541Z,3.70
2023-05-25T19:05:30.397Z,3.97
2023-05-25T19:10:32.283Z,3.72
2023-05-25T19:15:35.921Z,3.65
2023-05-25T19:20:37.815Z,3.45
2023-05-25T19:25:39.731Z,3.58
2023-05-25T19:30:41.771Z,3.60
2023-05-25T19:35:43.881Z,2.97
2023-05-25T19:40:45.920Z,3.75
2023-05-25T19:45:48.019Z,3.25
2023-05-25T19:50:49.899Z,3.85
2023-05-25T19:55:51.770Z,3.58
2023-05-25T20:00:53.878Z,3.85
2023-05-25T20:05:56.533Z,3.17
2023-05-25T20:10:58.425Z,3.28
2023-05-25T20:16:00.386Z,3.33
2023-05-25T20:21:02.236Z,3.20
2023-05-25T20:26:04.043Z,4.07
2023-05-25T20:31:06.549Z,3.63
2023-05-25T20:36:08.427Z,2.90
2023-05-25T20:41:10.343Z,4.15
2023-05-25T20:46:12.221Z,3.72
2023-05-25T20:51:14.385Z,3.53
2023-05-25T20:56:17.929Z,3.55
2023-05-25T21:01:19.834Z,3.92
2023-05-25T21:06:22.728Z,3.50
2023-05-25T21:11:26.216Z,4.32
2023-05-25T21:16:28.136Z,3.83
2023-05-25T21:21:33.977Z,3.72
2023-05-25T21:26:35.878Z,4.05
2023-05-25T21:31:37.814Z,5.45
2023-05-25T21:36:39.657Z,4.60
2023-05-25T21:41:42.944Z,4.18
2023-05-25T21:46:44.825Z,4.90
2023-05-25T21:51:46.665Z,4.55
2023-05-25T21:56:48.456Z,4.63
2023-05-25T22:01:50.476Z,4.30
2023-05-25T22:06:52.419Z,5.35
2023-05-25T22:11:54.224Z,3.95
2023-05-25T22:16:56.104Z,4.53
2023-05-25T22:21:57.934Z,4.93
2023-05-25T22:26:59.733Z,5.35
2023-05-25T22:32:01.526Z,5.90
2023-05-25T22:37:04.765Z,4.72
2023-05-25T22:42:07.113Z,5.57
2023-05-25T22:47:08.942Z,5.13
2023-05-25T22:52:10.918Z,5.55
2023-05-25T22:57:12.752Z,4.68
2023-05-25T23:02:14.597Z,6.03
2023-05-25T23:07:16.496Z,5.07
2023-05-25T23:12:18.373Z,4.85
2023-05-25T23:17:21.846Z,5.30
2023-05-25T23:22:23.720Z,5.53
2023-05-25T23:27:25.801Z,5.35
2023-05-25T23:32:27.629Z,5.05
2023-05-25T23:37:29.523Z,4.25
2023-05-25T23:42:38.586Z,4.90
2023-05-25T23:47:40.557Z,4.90
2023-05-25T23:52:42.468Z,5.30
2023-05-25T23:57:44.429Z,4.97
